createdAt,value
2019-02-18T00:01:13.740Z,19.40
2019-02-18T00:03:58.074Z,23.62
2019-02-18T00:06:49.290Z,17.20
2019-02-18T00:09:21.535Z,19.17
2019-02-18T00:12:12.677Z,22.02
2019-02-18T00:14:56.489Z,18.35
2019-02-18T00:17:47.601Z,16.97
2019-02-18T00:20:19.594Z,19.37
2019-02-18T00:22:51.758Z,19.98
2019-02-18T00:25:34.633Z,20.08
2019-02-18T00:28:17.255Z,20.17
2019-02-18T00:31:00.465Z,16.65
2019-02-18T00:33:51.653Z,24.10
2019-02-18T00:36:35.010Z,13.98
2019-02-18T00:39:26.120Z,17.02
2019-02-18T00:42:09.976Z,19.37
2019-02-18T00:44:41.943Z,21.15
2019-02-18T00:47:25.864Z,25.15
2019-02-18T00:49:57.793Z,20.60
2019-02-18T00:52:30.219Z,21.57
2019-02-18T00:55:02.242Z,18.20
2019-02-18T00:57:47.019Z,17.32
2019-02-18T01:00:30.531Z,15.35
2019-02-18T01:03:12.805Z,16.07
2019-02-18T01:06:03.998Z,21.37
2019-02-18T01:08:47.622Z,21.55
2019-02-18T01:11:31.106Z,14.70
2019-02-18T01:14:22.393Z,23.40
2019-02-18T01:17:06.285Z,18.32
2019-02-18T01:19:49.730Z,17.92
2019-02-18T01:22:33.770Z,18.90
2019-02-18T01:25:15.969Z,18.48
2019-02-18T01:28:07.211Z,24.57
2019-02-18T01:30:51.151Z,15.40
2019-02-18T01:33:42.169Z,19.32
2019-02-18T01:36:25.833Z,18.65
2019-02-18T01:39:16.897Z,19.70
2019-02-18T01:42:00.298Z,17.60
2019-02-18T01:44:51.531Z,16.35
2019-02-18T01:47:35.825Z,18.48
2019-02-18T01:50:27.083Z,15.98
2019-02-18T01:53:11.056Z,17.37
2019-02-18T01:56:02.162Z,16.50
2019-02-18T01:58:34.274Z,16.00
2019-02-18T02:01:25.374Z,17.90
2019-02-18T02:04:09.270Z,16.23
2019-02-18T02:07:00.383Z,17.82
2019-02-18T02:09:44.684Z,16.15
2019-02-18T02:12:35.804Z,21.23
2019-02-18T02:15:23.879Z,18.00
2019-02-18T02:18:14.978Z,18.65
2019-02-18T02:20:58.704Z,17.67
2019-02-18T02:23:49.733Z,21.20
2019-02-18T02:26:33.296Z,20.57
2019-02-18T02:29:24.576Z,20.12
2019-02-18T02:32:08.181Z,16.20
2019-02-18T02:34:59.312Z,20.68
2019-02-18T02:37:43.391Z,19.32
2019-02-18T02:40:28.416Z,17.80
2019-02-18T02:43:12.650Z,18.27
2019-02-18T02:46:03.827Z,18.02
2019-02-18T02:48:47.966Z,16.70
2019-02-18T02:51:39.039Z,17.42
2019-02-18T02:54:11.166Z,17.00
2019-02-18T02:56:55.470Z,19.12
2019-02-18T02:59:39.167Z,14.28
2019-02-18T03:02:11.204Z,19.27
2019-02-18T03:04:43.234Z,26.93
2019-02-18T03:07:15.355Z,19.57
2019-02-18T03:10:00.014Z,20.10
2019-02-18T03:12:52.324Z,17.23
2019-02-18T03:15:36.253Z,19.00
2019-02-18T03:18:27.415Z,22.10
2019-02-18T03:21:11.667Z,17.62
2019-02-18T03:23:43.765Z,23.30
2019-02-18T03:26:34.940Z,16.77
2019-02-18T03:32:40.702Z,21.40
2019-02-18T03:35:24.210Z,20.62
2019-02-18T03:38:15.447Z,22.02
2019-02-18T03:41:03.226Z,18.90
2019-02-18T03:43:51.462Z,20.65
2019-02-18T03:46:35.488Z,18.57
2019-02-18T03:49:26.606Z,19.80
2019-02-18T03:52:10.748Z,18.27
2019-02-18T03:54:42.817Z,16.17
2019-02-18T03:57:27.356Z,20.77
2019-02-18T04:00:18.713Z,24.15
2019-02-18T04:03:02.855Z,18.67
2019-02-18T04:05:54.089Z,19.27
2019-02-18T04:08:42.869Z,22.37
2019-02-18T04:11:30.390Z,20.60
2019-02-18T04:14:15.234Z,16.70
2019-02-18T04:17:06.447Z,19.60
2019-02-18T04:19:50.824Z,18.40
2019-02-18T04:22:42.110Z,22.50
2019-02-18T04:25:26.252Z,18.62
2019-02-18T04:28:17.467Z,18.37
2019-02-18T04:31:01.520Z,17.00
2019-02-18T04:33:52.751Z,23.45
2019-02-18T04:36:36.171Z,30.48
2019-02-18T04:39:20.288Z,17.05
2019-02-18T04:42:11.396Z,25.23
2019-02-18T04:44:43.517Z,19.52
2019-02-18T04:47:34.693Z,19.37
2019-02-18T04:50:19.371Z,22.45
2019-02-18T04:52:51.592Z,17.87
2019-02-18T04:55:35.325Z,19.20
2019-02-18T04:58:19.328Z,20.82
2019-02-18T05:01:10.502Z,21.77
2019-02-18T05:03:54.765Z,27.87
2019-02-18T05:06:45.808Z,18.65
2019-02-18T05:09:17.908Z,21.00
2019-02-18T05:12:08.947Z,20.55
2019-02-18T05:14:40.834Z,18.62
2019-02-18T05:17:12.739Z,25.65
2019-02-18T05:19:45.129Z,23.52
2019-02-18T05:22:29.791Z,19.92
2019-02-18T05:25:20.830Z,19.85
2019-02-18T05:27:53.043Z,17.00
2019-02-18T05:30:25.344Z,20.97
2019-02-18T05:32:58.424Z,21.65
2019-02-18T05:35:30.593Z,23.02
2019-02-18T05:38:15.072Z,19.57
2019-02-18T05:41:06.262Z,23.20
2019-02-18T05:43:50.623Z,22.27
2019-02-18T05:46:41.812Z,25.45
2019-02-18T05:49:25.991Z,23.55
2019-02-18T05:52:17.128Z,23.57
2019-02-18T05:55:02.727Z,29.98
2019-02-18T05:57:53.925Z,24.75
2019-02-18T06:00:39.075Z,21.55
2019-02-18T06:03:22.933Z,26.85
2019-02-18T06:06:13.901Z,18.25
2019-02-18T06:08:57.443Z,20.48
2019-02-18T06:11:48.679Z,21.27
2019-02-18T06:14:32.858Z,22.27
2019-02-18T06:17:23.888Z,24.12
2019-02-18T06:20:07.803Z,24.32
2019-02-18T06:22:51.469Z,21.80
2019-02-18T06:25:42.625Z,23.27
2019-02-18T06:28:26.822Z,22.42
2019-02-18T06:31:18.116Z,23.50
2019-02-18T06:34:02.118Z,23.57
2019-02-18T06:36:53.166Z,20.23
2019-02-18T06:39:41.230Z,23.52
2019-02-18T06:42:29.692Z,18.52
2019-02-18T06:45:35.166Z,19.85
2019-02-18T06:49:04.216Z,22.40
2019-02-18T06:51:36.567Z,20.82
2019-02-18T06:54:27.786Z,23.07
2019-02-18T06:57:30.712Z,22.02
2019-02-18T07:03:53.337Z,25.62
2019-02-18T07:06:56.329Z,24.43
2019-02-18T07:12:38.573Z,20.43
2019-02-18T07:15:29.849Z,21.37
2019-02-18T07:18:13.889Z,21.77
2019-02-18T07:21:05.158Z,20.80
2019-02-18T07:23:49.619Z,19.15
2019-02-18T07:26:40.935Z,20.80
2019-02-18T07:29:24.662Z,15.78
2019-02-18T07:32:08.544Z,18.40
2019-02-18T07:34:59.777Z,17.35
2019-02-18T07:37:46.107Z,20.15
2019-02-18T07:40:37.244Z,19.65
2019-02-18T07:43:23.040Z,20.08
2019-02-18T07:46:14.013Z,19.70
2019-02-18T07:48:58.234Z,21.48
2019-02-18T07:51:49.497Z,19.87
2019-02-18T07:54:33.620Z,20.52
2019-02-18T07:57:24.850Z,19.60
2019-02-18T08:00:09.890Z,17.40
2019-02-18T08:02:42.503Z,19.65
2019-02-18T08:05:26.057Z,22.27
2019-02-18T08:08:10.716Z,15.98
2019-02-18T08:10:54.688Z,17.85
2019-02-18T08:13:46.051Z,14.93
2019-02-18T08:16:18.195Z,21.37
2019-02-18T08:18:50.318Z,15.43
2019-02-18T08:21:22.479Z,18.62
2019-02-18T08:24:13.732Z,15.45
2019-02-18T08:26:57.132Z,14.68
2019-02-18T08:29:48.456Z,16.95
2019-02-18T08:32:33.201Z,18.00
2019-02-18T08:35:24.504Z,17.37
2019-02-18T08:37:56.655Z,23.25
2019-02-18T08:40:47.814Z,18.05
2019-02-18T08:43:31.400Z,25.72
2019-02-18T08:46:22.619Z,16.42
2019-02-18T08:49:06.855Z,15.93
2019-02-18T08:51:58.069Z,19.00
2019-02-18T08:54:30.343Z,15.58
2019-02-18T08:57:21.604Z,15.00
2019-02-18T09:00:06.121Z,16.55
2019-02-18T09:02:59.075Z,14.23
2019-02-18T09:05:42.787Z,18.07
2019-02-18T09:08:33.881Z,20.57
2019-02-18T09:11:18.236Z,16.75
2019-02-18T09:14:09.886Z,15.43
2019-02-18T09:16:53.885Z,21.50
2019-02-18T09:19:38.331Z,16.15
2019-02-18T09:22:48.376Z,16.57
2019-02-18T09:25:44.596Z,14.58
2019-02-18T09:28:35.744Z,19.52
2019-02-18T09:31:24.757Z,22.37
2019-02-18T09:34:09.526Z,16.20
2019-02-18T09:36:52.805Z,16.70
2019-02-18T09:39:37.113Z,20.68
2019-02-18T09:42:28.179Z,14.95
2019-02-18T09:45:14.543Z,16.23
2019-02-18T09:48:04.698Z,18.07
2019-02-18T09:50:49.000Z,17.70
2019-02-18T09:53:40.227Z,21.75
2019-02-18T09:56:25.414Z,15.78
2019-02-18T09:59:17.021Z,18.92
2019-02-18T10:02:01.031Z,17.70
2019-02-18T10:04:45.427Z,21.62
2019-02-18T10:07:29.031Z,16.85
2019-02-18T10:10:12.649Z,15.70
2019-02-18T10:13:03.846Z,17.20
2019-02-18T10:15:48.050Z,18.37
2019-02-18T10:18:39.342Z,21.93
2019-02-18T10:21:11.535Z,17.73
2019-02-18T10:24:02.756Z,19.52
2019-02-18T10:26:46.861Z,17.05
2019-02-18T10:29:37.931Z,15.23
2019-02-18T10:32:09.922Z,17.02
2019-02-18T10:35:00.491Z,18.65
2019-02-18T10:37:44.503Z,23.77
2019-02-18T10:40:28.827Z,19.42
2019-02-18T10:43:31.865Z,18.87
2019-02-18T10:46:00.527Z,17.07
2019-02-18T10:48:32.786Z,18.25
2019-02-18T10:51:04.748Z,16.97
2019-02-18T10:53:36.907Z,18.92
2019-02-18T10:56:21.622Z,19.73
2019-02-18T10:59:12.809Z,20.40
2019-02-18T11:01:56.395Z,19.73
2019-02-18T11:04:48.437Z,13.15
2019-02-18T11:07:31.927Z,15.48
2019-02-18T11:10:23.249Z,21.40
2019-02-18T11:13:07.128Z,17.95
2019-02-18T11:15:58.558Z,20.80
2019-02-18T11:18:32.179Z,15.40
2019-02-18T11:21:23.306Z,19.32
2019-02-18T11:24:07.241Z,21.48
2019-02-18T11:26:58.385Z,19.27
2019-02-18T11:29:42.045Z,25.48
2019-02-18T11:32:33.066Z,17.98
2019-02-18T11:35:16.553Z,18.90
2019-02-18T11:38:07.659Z,16.12
2019-02-18T11:40:52.196Z,26.40
2019-02-18T11:43:43.284Z,15.23
2019-02-18T11:46:28.229Z,13.32
2019-02-18T11:49:00.252Z,16.27
2019-02-18T11:51:32.181Z,14.13
2019-02-18T11:54:04.229Z,14.53
2019-02-18T11:56:36.703Z,14.28
2019-02-18T11:59:27.847Z,14.95
2019-02-18T12:02:11.651Z,16.95
2019-02-18T12:05:02.916Z,13.60
2019-02-18T12:07:46.749Z,17.63
2019-02-18T12:10:37.861Z,14.38
2019-02-18T12:13:22.030Z,11.38
2019-02-18T12:16:13.220Z,19.05
2019-02-18T12:18:57.261Z,15.90
2019-02-18T12:21:48.522Z,14.20
2019-02-18T12:24:32.816Z,17.30
2019-02-18T12:27:24.000Z,17.20
2019-02-18T12:30:08.475Z,16.93
2019-02-18T12:32:59.694Z,15.85
2019-02-18T12:35:44.365Z,13.75
2019-02-18T12:38:35.828Z,19.15
2019-02-18T12:41:07.918Z,16.07
2019-02-18T12:44:18.087Z,23.38
2019-02-18T12:47:02.619Z,13.80
2019-02-18T12:49:46.256Z,14.80
2019-02-18T12:52:37.501Z,17.73
2019-02-18T12:55:23.466Z,14.00
2019-02-18T12:58:14.855Z,13.83
2019-02-18T13:00:58.629Z,11.88
2019-02-18T13:03:42.621Z,11.60
2019-02-18T13:06:27.358Z,20.50
2019-02-18T13:09:10.930Z,12.47
2019-02-18T13:12:02.080Z,13.60
2019-02-18T13:14:46.228Z,16.77
2019-02-18T13:17:37.375Z,23.32
2019-02-18T13:20:21.465Z,18.70
2019-02-18T13:23:12.793Z,13.68
2019-02-18T13:25:56.632Z,15.48
2019-02-18T13:28:28.672Z,12.53
2019-02-18T13:31:00.750Z,13.45
2019-02-18T13:33:51.890Z,15.28
2019-02-18T13:36:24.018Z,15.08
2019-02-18T13:38:56.318Z,13.32
2019-02-18T13:41:28.387Z,17.32
2019-02-18T13:44:00.569Z,15.80
2019-02-18T13:46:32.681Z,17.55
2019-02-18T13:49:24.037Z,16.62
2019-02-18T13:51:56.844Z,14.55
2019-02-18T13:54:55.152Z,13.38
2019-02-18T13:57:39.484Z,17.35
2019-02-18T14:00:30.978Z,14.25
2019-02-18T14:03:16.196Z,15.55
2019-02-18T14:06:07.654Z,18.57
2019-02-18T14:08:52.092Z,14.90
2019-02-18T14:11:43.230Z,14.87
2019-02-18T14:14:28.358Z,20.15
2019-02-18T14:17:19.758Z,16.40
2019-02-18T14:20:04.990Z,14.07
2019-02-18T14:22:49.160Z,16.02
2019-02-18T14:25:33.015Z,14.03
2019-02-18T14:31:32.904Z,14.60
2019-02-18T14:34:24.000Z,11.78
2019-02-18T14:37:08.709Z,17.62
2019-02-18T14:39:40.977Z,14.80
2019-02-18T14:42:25.290Z,15.58
2019-02-18T14:45:16.787Z,15.15
2019-02-18T14:48:00.891Z,15.85
2019-02-18T14:50:56.721Z,12.85
2019-02-18T14:53:42.687Z,13.93
2019-02-18T14:59:34.855Z,16.60
2019-02-18T15:02:46.412Z,12.85
2019-02-18T15:05:31.851Z,12.07
2019-02-18T15:08:22.953Z,15.45
2019-02-18T15:11:06.455Z,12.28
2019-02-18T15:13:57.672Z,11.97
2019-02-18T15:16:41.207Z,11.80
2019-02-18T15:19:32.557Z,19.17
2019-02-18T15:22:14.994Z,12.15
2019-02-18T15:25:06.322Z,13.60
2019-02-18T15:27:51.357Z,13.38
2019-02-18T15:30:23.345Z,13.75
2019-02-18T15:33:06.775Z,12.85
2019-02-18T15:35:58.062Z,14.60
2019-02-18T15:38:42.152Z,13.35
2019-02-18T15:41:33.365Z,15.72
2019-02-18T15:44:17.569Z,13.95
2019-02-18T15:47:09.005Z,17.07
2019-02-18T15:49:41.645Z,14.28
2019-02-18T15:52:14.104Z,14.47
2019-02-18T15:55:07.778Z,14.15
2019-02-18T15:57:59.047Z,16.77
2019-02-18T16:00:38.867Z,18.48
2019-02-18T16:03:11.486Z,16.17
2019-02-18T16:05:43.848Z,15.72
2019-02-18T16:08:35.318Z,17.30
2019-02-18T16:11:07.519Z,21.20
2019-02-18T16:13:39.786Z,17.85
2019-02-18T16:16:12.172Z,16.07
2019-02-18T16:19:03.377Z,16.97
2019-02-18T16:21:48.353Z,17.57
2019-02-18T16:24:39.577Z,14.53
2019-02-18T16:27:23.933Z,13.32
2019-02-18T16:30:15.375Z,14.93
2019-02-18T16:33:10.600Z,19.95
2019-02-18T16:36:02.315Z,22.42
2019-02-18T16:38:47.140Z,18.42
2019-02-18T16:41:38.295Z,20.52
2019-02-18T16:44:22.277Z,19.50
2019-02-18T16:47:13.406Z,17.10
2019-02-18T16:49:57.429Z,18.87
2019-02-18T16:52:48.653Z,22.58
2019-02-18T16:55:33.025Z,15.88
2019-02-18T16:58:24.195Z,17.75
2019-02-18T17:01:07.913Z,16.07
2019-02-18T17:03:59.536Z,19.55
2019-02-18T17:06:44.164Z,24.10
2019-02-18T17:09:36.339Z,18.07
2019-02-18T17:12:19.958Z,22.32
2019-02-18T17:15:11.164Z,18.67
2019-02-18T17:17:55.391Z,21.33
2019-02-18T17:20:46.498Z,20.25
2019-02-18T17:23:31.797Z,25.95
2019-02-18T17:26:23.018Z,21.10
2019-02-18T17:29:28.014Z,25.72
2019-02-18T17:32:19.315Z,29.05
2019-02-18T17:35:04.375Z,24.95
2019-02-18T17:37:55.482Z,24.87
2019-02-18T17:41:01.486Z,24.80
2019-02-18T17:43:52.688Z,28.27
2019-02-18T17:46:36.620Z,25.45
2019-02-18T17:49:27.715Z,19.92
2019-02-18T17:52:06.998Z,23.55
2019-02-18T17:54:58.016Z,25.65
2019-02-18T17:57:42.327Z,22.45
2019-02-18T18:00:34.930Z,20.95
2019-02-18T18:03:18.427Z,22.73
2019-02-18T18:06:03.437Z,25.95
2019-02-18T18:08:36.447Z,21.23
2019-02-18T18:11:18.697Z,27.05
2019-02-18T18:14:02.568Z,20.00
2019-02-18T18:16:53.720Z,29.23
2019-02-18T18:19:37.533Z,23.60
2019-02-18T18:22:28.731Z,26.45
2019-02-18T18:25:12.520Z,24.60
2019-02-18T18:28:03.761Z,23.25
2019-02-18T18:30:48.198Z,22.32
2019-02-18T18:33:39.561Z,21.30
2019-02-18T18:36:23.277Z,22.85
2019-02-18T18:39:15.389Z,25.72
2019-02-18T18:41:59.264Z,26.50
2019-02-18T18:44:50.476Z,28.12
2019-02-18T18:47:33.926Z,24.77
2019-02-18T18:50:25.007Z,27.00
2019-02-18T18:53:08.900Z,25.55
2019-02-18T18:56:00.014Z,28.05
2019-02-18T18:58:44.634Z,30.88
2019-02-18T19:01:35.986Z,22.67
2019-02-18T19:04:21.323Z,34.70
2019-02-18T19:07:12.347Z,33.02
2019-02-18T19:09:55.917Z,24.57
2019-02-18T19:12:47.246Z,31.80
2019-02-18T19:15:31.096Z,32.55
2019-02-18T19:18:22.440Z,26.23
2019-02-18T19:20:54.565Z,21.00
2019-02-18T19:23:46.106Z,26.48
2019-02-18T19:26:31.169Z,25.50
2019-02-18T19:29:03.202Z,25.85
2019-02-18T19:31:47.096Z,25.97
2019-02-18T19:34:38.295Z,26.68
2019-02-18T19:37:22.613Z,25.05
2019-02-18T19:40:14.009Z,22.77
2019-02-18T19:42:47.752Z,19.30
2019-02-18T19:45:31.195Z,26.15
2019-02-18T19:48:04.521Z,23.20
2019-02-18T19:50:41.519Z,26.80
2019-02-18T19:53:26.386Z,24.27
2019-02-18T19:55:58.374Z,22.30
2019-02-18T19:58:41.821Z,28.05
2019-02-18T20:01:32.984Z,22.82
2019-02-18T20:04:17.416Z,29.25
2019-02-18T20:06:49.560Z,31.50
2019-02-18T20:09:33.777Z,18.30
2019-02-18T20:12:06.163Z,20.00
2019-02-18T20:14:50.257Z,19.35
2019-02-18T20:17:41.649Z,27.62
2019-02-18T20:20:14.294Z,26.45
2019-02-18T20:23:06.943Z,24.85
2019-02-18T20:25:50.633Z,28.77
2019-02-18T20:28:41.877Z,26.25
2019-02-18T20:31:26.499Z,28.23
2019-02-18T20:34:18.565Z,29.07
2019-02-18T20:37:02.196Z,22.42
2019-02-18T20:39:53.759Z,24.70
2019-02-18T20:42:37.512Z,26.27
2019-02-18T20:45:28.850Z,25.77
2019-02-18T20:48:13.083Z,19.15
2019-02-18T20:51:07.994Z,31.77
2019-02-18T20:53:51.985Z,23.83
2019-02-18T20:56:36.318Z,29.63
2019-02-18T20:59:27.578Z,29.85
2019-02-18T21:01:59.866Z,29.60
2019-02-18T21:04:44.371Z,28.10
2019-02-18T21:07:35.531Z,27.35
2019-02-18T21:10:19.540Z,29.37
2019-02-18T21:13:10.676Z,26.12
2019-02-18T21:15:54.583Z,24.85
2019-02-18T21:18:38.533Z,27.35
2019-02-18T21:21:29.725Z,22.00
2019-02-18T21:24:14.709Z,22.93
2019-02-18T21:27:05.960Z,32.50
2019-02-18T21:29:50.805Z,25.25
2019-02-18T21:32:22.970Z,19.48
2019-02-18T21:35:07.558Z,22.42
2019-02-18T21:37:58.643Z,30.27
2019-02-18T21:40:42.447Z,20.88
2019-02-18T21:43:14.593Z,28.67
2019-02-18T21:45:58.874Z,26.40
2019-02-18T21:48:30.910Z,23.50
2019-02-18T21:51:22.015Z,27.60
2019-02-18T21:54:05.926Z,23.07
2019-02-18T21:56:57.132Z,30.25
2019-02-18T21:59:41.285Z,27.58
2019-02-18T22:02:13.284Z,32.28
2019-02-18T22:05:04.548Z,23.15
2019-02-18T22:08:08.921Z,27.45
2019-02-18T22:11:00.386Z,26.82
2019-02-18T22:13:44.693Z,27.70
2019-02-18T22:16:23.714Z,33.28
2019-02-18T22:19:08.313Z,24.55
2019-02-18T22:21:43.334Z,21.87
2019-02-18T22:24:27.225Z,26.62
2019-02-18T22:27:18.332Z,26.57
2019-02-18T22:30:02.537Z,23.77
2019-02-18T22:32:53.703Z,30.08
2019-02-18T22:35:37.726Z,23.35
2019-02-18T22:38:21.974Z,29.75
2019-02-18T22:41:13.028Z,28.40
2019-02-18T22:43:56.629Z,21.55
2019-02-18T22:46:47.796Z,23.35
2019-02-18T22:49:31.903Z,23.87
2019-02-18T22:52:23.086Z,26.80
2019-02-18T22:55:28.468Z,26.25
2019-02-18T22:58:20.084Z,22.07
2019-02-18T23:01:04.369Z,27.22
2019-02-18T23:03:56.146Z,28.02
2019-02-18T23:07:00.112Z,23.12
2019-02-18T23:09:51.215Z,23.75
2019-02-18T23:12:35.375Z,26.12
2019-02-18T23:15:26.433Z,29.35
2019-02-18T23:18:10.319Z,27.58
2019-02-18T23:21:01.555Z,29.30
2019-02-18T23:23:47.211Z,34.05
2019-02-18T23:26:38.263Z,34.25
2019-02-18T23:29:21.649Z,24.27
2019-02-18T23:31:53.696Z,32.23
2019-02-18T23:34:37.543Z,28.80
2019-02-18T23:37:28.795Z,23.10
2019-02-18T23:40:12.773Z,29.77
2019-02-18T23:42:56.777Z,27.80
2019-02-18T23:45:47.970Z,24.50
2019-02-18T23:48:32.420Z,23.95
2019-02-18T23:51:23.632Z,28.35
2019-02-18T23:54:07.315Z,28.23
2019-02-18T23:56:57.908Z,23.60
2019-02-18T23:59:42.426Z,24.75
